Time;durP1;ratioP1;P1;durP2;ratioP2;P2;SDS_P1;SDS_P2;PMS_P1;PMS_P2;Temp;Humidity;BMP_temperature;BMP_pressure;BME280_temperature;BME280_humidity;BME280_pressure;Samples;Min_cycle;Max_cycle;Signal;HPM_P1;HPM_P2
2022/12/15 00:39:12;;;;;;;16.25;9.20;;;20.80;99.90;;;;;;5013121;28;20080;-60
2022/12/15 00:41:38;;;;;;;15.00;9.80;;;20.80;99.90;;;;;;5013231;28;20030;-61
2022/12/15 00:44:04;;;;;;;16.23;10.60;;;20.80;99.90;;;;;;5013204;28;20095;-62
2022/12/15 01:22:05;;;;;;;19.90;8.23;;;20.80;99.90;;;;;;5032349;28;20033;-63
2022/12/15 01:24:31;;;;;;;13.35;8.07;;;20.70;99.90;;;;;;5032588;28;20018;-62
2022/12/15 01:26:57;;;;;;;15.88;8.32;;;20.70;99.90;;;;;;5032404;28;20036;-59
2022/12/15 01:29:23;;;;;;;16.85;7.30;;;20.70;99.90;;;;;;5031770;28;20026;-58
2022/12/15 01:31:49;;;;;;;15.68;7.88;;;20.70;99.90;;;;;;5031789;28;20445;-60
2022/12/15 01:34:16;;;;;;;13.43;6.70;;;20.70;99.90;;;;;;5031588;28;20093;-58
2022/12/15 01:36:42;;;;;;;14.85;7.82;;;20.70;99.90;;;;;;5031638;28;20056;-57
2022/12/15 01:39:07;;;;;;;18.35;7.85;;;20.70;99.90;;;;;;5031751;28;20099;-63
2022/12/15 01:41:33;;;;;;;15.60;7.38;;;20.70;99.90;;;;;;5031589;28;20030;-66
2022/12/15 01:44:20;;;;;;;15.73;7.85;;;20.70;99.90;;;;;;5031923;28;20021;-57
2022/12/15 01:46:48;;;;;;;16.95;7.30;;;20.70;99.90;;;;;;5032144;28;20044;-57
2022/12/15 01:49:23;;;;;;;12.82;6.68;;;20.70;99.90;;;;;;5031885;28;20037;-57
2022/12/15 01:51:55;;;;;;;15.48;7.55;;;20.70;99.90;;;;;;5030712;28;20144;-56
2022/12/15 01:54:32;;;;;;;12.23;7.47;;;20.70;99.90;;;;;;5032077;28;20025;-60
2022/12/15 01:57:06;;;;;;;13.85;6.85;;;20.70;99.90;;;;;;5019705;28;20032;-59
2022/12/15 01:59:39;;;;;;;16.42;7.00;;;20.70;99.90;;;;;;5033566;28;20040;-57
2022/12/15 02:02:05;;;;;;;14.73;6.90;;;20.70;99.90;;;;;;5051846;28;20035;-57
2022/12/15 02:04:32;;;;;;;12.88;5.93;;;20.70;99.90;;;;;;5033641;28;20029;-57
2022/12/15 02:06:58;;;;;;;14.80;6.35;;;20.70;99.90;;;;;;5051901;28;20025;-56
2022/12/15 02:09:25;;;;;;;16.00;6.15;;;20.70;99.90;;;;;;5051607;28;20028;-55
2022/12/15 02:12:38;;;;;;;13.18;5.43;;;20.70;99.90;;;;;;5051445;28;20052;-57
2022/12/15 02:15:10;;;;;;;13.30;6.50;;;20.70;99.90;;;;;;4976270;28;20048;-56
2022/12/15 02:17:59;;;;;;;13.07;5.72;;;20.70;99.90;;;;;;5038183;28;20025;-57
2022/12/15 02:20:33;;;;;;;12.13;6.20;;;20.70;99.90;;;;;;5051511;28;20056;-54
2022/12/15 02:23:18;;;;;;;13.68;6.75;;;20.70;99.90;;;;;;5051653;28;20025;-67
2022/12/15 02:26:04;;;;;;;12.98;6.45;;;20.70;99.90;;;;;;5051460;28;20029;-58
2022/12/15 02:28:29;;;;;;;16.17;5.95;;;20.70;99.90;;;;;;5034333;28;20459;-58
2022/12/15 02:34:18;;;;;;;17.33;6.78;;;20.70;99.90;;;;;;5051340;28;20086;-58
2022/12/15 02:36:48;;;;;;;20.25;6.40;;;20.70;99.90;;;;;;5051638;28;20060;-55
2022/12/15 02:39:17;;;;;;;13.63;6.53;;;20.70;99.90;;;;;;5050795;28;20048;-55
2022/12/15 02:41:45;;;;;;;13.80;6.53;;;20.70;99.90;;;;;;5050639;28;20040;-54
2022/12/15 02:44:37;;;;;;;12.02;6.07;;;20.70;99.90;;;;;;5048393;28;20029;-54
2022/12/15 02:47:18;;;;;;;13.88;5.55;;;20.70;99.90;;;;;;5038060;28;20040;-55
2022/12/15 02:50:34;;;;;;;11.40;5.25;;;20.70;99.90;;;;;;5051185;28;20114;-53
2022/12/15 02:53:33;;;;;;;11.70;6.57;;;20.70;99.90;;;;;;4951624;29;20548;-54
2022/12/15 02:56:08;;;;;;;10.68;5.28;;;20.70;99.90;;;;;;5013684;28;20160;-53
2022/12/15 02:58:45;;;;;;;13.88;5.55;;;20.70;99.90;;;;;;5043861;28;20024;-54
2022/12/15 03:01:25;;;;;;;16.07;6.43;;;20.70;99.90;;;;;;5083651;22;20057;-48
2022/12/15 03:03:51;;;;;;;9.95;5.05;;;20.70;99.90;;;;;;5053081;28;20292;-50
2022/12/15 03:06:18;;;;;;;11.55;5.65;;;20.70;99.90;;;;;;5054303;28;20017;-49
2022/12/15 03:08:44;;;;;;;10.50;5.30;;;20.70;99.90;;;;;;5054296;28;20048;-48
2022/12/15 03:11:10;;;;;;;11.85;5.88;;;20.70;99.90;;;;;;5053914;28;20037;-49
2022/12/15 03:13:35;;;;;;;11.23;5.63;;;20.70;99.90;;;;;;5054301;28;20512;-48
2022/12/15 03:16:01;;;;;;;13.57;6.25;;;20.70;99.90;;;;;;5054253;28;20431;-48
2022/12/15 03:18:27;;;;;;;14.63;6.07;;;20.70;99.90;;;;;;5054510;28;20036;-49
2022/12/15 03:20:53;;;;;;;13.93;6.30;;;20.60;99.90;;;;;;5036294;28;20070;-49
2022/12/15 03:23:21;;;;;;;11.27;5.40;;;20.60;99.90;;;;;;5053513;28;20111;-52
2022/12/15 03:25:47;;;;;;;9.32;5.40;;;20.70;99.90;;;;;;5053547;28;20314;-49
2022/12/15 03:28:13;;;;;;;12.90;5.88;;;20.70;99.90;;;;;;5053939;28;20131;-49
2022/12/15 03:30:39;;;;;;;10.23;5.97;;;20.70;99.90;;;;;;5052442;28;20033;-49
2022/12/15 03:33:04;;;;;;;12.82;5.50;;;20.60;99.90;;;;;;5053684;28;20020;-49
2022/12/15 03:35:32;;;;;;;13.52;6.25;;;20.60;99.90;;;;;;5053960;28;20047;-49
2022/12/15 03:37:57;;;;;;;15.38;6.80;;;20.70;99.90;;;;;;5054499;28;20057;-49
2022/12/15 03:40:23;;;;;;;11.30;5.30;;;20.70;99.90;;;;;;5054124;28;20501;-48
2022/12/15 03:42:49;;;;;;;16.77;6.22;;;20.70;99.90;;;;;;5054162;28;20497;-49
2022/12/15 03:45:23;;;;;;;10.48;5.75;;;20.70;99.90;;;;;;5053950;28;20017;-49
2022/12/15 03:47:49;;;;;;;11.45;4.75;;;20.60;99.90;;;;;;5053638;28;20029;-48
2022/12/15 03:50:18;;;;;;;11.60;5.53;;;20.70;99.90;;;;;;5053298;28;20478;-48
2022/12/15 03:52:44;;;;;;;14.18;4.88;;;20.70;99.90;;;;;;5053426;28;20526;-48
2022/12/15 03:55:10;;;;;;;14.60;5.43;;;20.60;99.90;;;;;;5051735;28;20021;-48
2022/12/15 03:57:36;;;;;;;13.05;5.25;;;20.70;99.90;;;;;;5048279;28;20029;-48
2022/12/15 04:00:04;;;;;;;11.20;5.40;;;20.60;99.90;;;;;;5032906;22;20483;-66
2022/12/15 04:02:30;;;;;;;13.82;6.55;;;20.60;99.90;;;;;;4973327;28;20030;-66
2022/12/15 04:04:55;;;;;;;13.10;6.20;;;20.60;99.90;;;;;;4985132;28;20031;-70
2022/12/15 04:07:21;;;;;;;15.68;6.25;;;20.60;99.90;;;;;;4972981;28;20041;-68
2022/12/15 04:09:47;;;;;;;11.82;6.75;;;20.60;99.90;;;;;;4972982;28;20477;-69
2022/12/15 04:12:13;;;;;;;11.25;4.93;;;20.60;99.90;;;;;;4989930;28;20057;-67
2022/12/15 04:14:41;;;;;;;10.63;5.40;;;20.60;99.90;;;;;;4985663;28;20354;-68
2022/12/15 04:17:10;;;;;;;10.70;4.85;;;20.50;99.90;;;;;;4974861;28;20027;-68
2022/12/15 04:22:21;;;;;;;12.55;6.20;;;20.50;99.90;;;;;;4974901;28;20539;-63
2022/12/15 05:33:19;;;;;;;11.27;5.95;;;20.30;99.90;;;;;;5012740;28;20029;-60
2022/12/15 05:35:45;;;;;;;9.10;4.90;;;20.30;99.90;;;;;;5012786;28;20026;-61
2022/12/15 05:38:11;;;;;;;9.85;4.68;;;20.30;99.90;;;;;;5012690;28;20399;-62
2022/12/15 05:40:36;;;;;;;10.55;4.45;;;20.30;99.90;;;;;;5012931;28;20395;-62
2022/12/15 05:43:02;;;;;;;10.95;5.10;;;20.30;99.90;;;;;;5012600;28;20022;-62
2022/12/15 05:45:28;;;;;;;12.13;5.47;;;20.30;99.90;;;;;;5012511;28;20037;-62
2022/12/15 05:47:55;;;;;;;11.38;5.95;;;20.30;99.90;;;;;;5012480;28;20022;-62
2022/12/15 05:50:21;;;;;;;11.20;5.20;;;20.30;99.90;;;;;;5012506;28;20054;-60
2022/12/15 05:52:50;;;;;;;11.70;5.93;;;20.30;99.90;;;;;;5012514;28;20025;-60
2022/12/15 05:55:17;;;;;;;13.57;5.40;;;20.30;99.90;;;;;;5012570;28;20411;-60
2022/12/15 05:57:49;;;;;;;12.80;5.03;;;20.30;99.90;;;;;;5012422;28;20021;-61
2022/12/15 06:00:15;;;;;;;12.75;4.88;;;20.30;99.90;;;;;;5012131;28;20061;-61
2022/12/15 06:02:41;;;;;;;9.30;4.75;;;20.30;99.90;;;;;;5012420;28;20022;-62
2022/12/15 06:05:07;;;;;;;10.93;5.43;;;20.30;99.90;;;;;;5012599;28;20030;-61
2022/12/15 06:07:33;;;;;;;8.48;4.43;;;20.30;99.90;;;;;;5012402;28;20115;-60
2022/12/15 06:09:59;;;;;;;11.65;5.40;;;20.30;99.90;;;;;;5012256;28;20025;-62
2022/12/15 06:12:25;;;;;;;12.20;4.95;;;20.30;99.90;;;;;;5012217;28;20157;-60
2022/12/15 06:14:51;;;;;;;10.95;5.88;;;20.30;99.90;;;;;;5012345;28;20025;-61
2022/12/15 06:17:16;;;;;;;9.70;4.55;;;20.30;99.90;;;;;;5012268;28;20503;-61
2022/12/15 06:19:42;;;;;;;10.90;4.97;;;20.30;99.90;;;;;;5012271;28;20034;-61
2022/12/15 06:22:09;;;;;;;10.60;5.72;;;20.30;99.90;;;;;;5012464;28;20029;-66
2022/12/15 06:24:35;;;;;;;10.10;5.10;;;20.20;99.90;;;;;;5012184;28;20092;-67
2022/12/15 06:27:00;;;;;;;12.32;5.07;;;20.20;99.90;;;;;;5012279;28;20467;-66
2022/12/15 06:29:26;;;;;;;9.55;4.75;;;20.20;99.90;;;;;;5012120;28;20108;-65
2022/12/15 06:31:52;;;;;;;11.30;4.55;;;20.20;99.90;;;;;;4978156;28;20510;-60
2022/12/15 06:34:18;;;;;;;8.40;4.78;;;20.20;99.90;;;;;;5012092;28;20395;-61
2022/12/15 06:36:44;;;;;;;7.32;4.20;;;20.20;99.90;;;;;;5012088;28;20444;-61
2022/12/15 06:39:15;;;;;;;11.40;4.75;;;20.20;99.90;;;;;;5015451;28;20155;-63
2022/12/15 06:41:42;;;;;;;8.85;4.45;;;20.20;99.90;;;;;;5014710;28;20068;-63
2022/12/15 06:44:14;;;;;;;8.02;4.20;;;20.10;99.90;;;;;;5014880;28;20010;-64
2022/12/15 06:46:40;;;;;;;8.48;3.75;;;20.10;99.90;;;;;;5016031;28;20032;-63
2022/12/15 06:49:07;;;;;;;9.45;4.80;;;20.10;99.90;;;;;;5015770;28;20026;-62
2022/12/15 06:51:33;;;;;;;10.13;4.35;;;20.10;99.90;;;;;;5015740;28;20042;-62
2022/12/15 06:54:00;;;;;;;8.07;4.22;;;20.10;99.90;;;;;;5015481;28;20040;-62
2022/12/15 06:56:36;;;;;;;9.40;4.43;;;20.10;99.90;;;;;;5015406;28;20036;-61
2022/12/15 06:59:04;;;;;;;7.78;3.80;;;20.10;99.90;;;;;;5015340;28;20024;-63
2022/12/15 07:01:31;;;;;;;8.90;4.10;;;20.10;99.90;;;;;;5013838;28;20406;-60
2022/12/15 07:03:58;;;;;;;8.15;3.90;;;20.10;99.90;;;;;;5015333;28;20502;-61
2022/12/15 07:06:24;;;;;;;8.65;3.58;;;20.10;99.90;;;;;;5015292;28;20030;-59
2022/12/15 07:08:53;;;;;;;9.65;4.18;;;20.00;99.90;;;;;;5015360;28;20490;-60
2022/12/15 07:11:20;;;;;;;9.43;4.07;;;20.00;99.90;;;;;;5015093;28;20084;-60
2022/12/15 07:13:52;;;;;;;9.98;4.05;;;20.00;99.90;;;;;;5015409;28;20088;-60
2022/12/15 07:16:20;;;;;;;8.73;3.92;;;20.00;99.90;;;;;;5015158;28;20057;-60
2022/12/15 07:18:46;;;;;;;7.90;3.97;;;20.00;99.90;;;;;;5015130;28;20026;-60
2022/12/15 07:21:12;;;;;;;6.95;3.58;;;20.10;99.90;;;;;;5015159;28;20025;-60
2022/12/15 07:23:37;;;;;;;7.82;4.38;;;20.10;99.90;;;;;;5015119;28;20101;-60
2022/12/15 07:26:05;;;;;;;13.25;4.30;;;20.10;99.90;;;;;;5014849;28;20028;-61
2022/12/15 07:28:31;;;;;;;8.27;4.03;;;20.00;99.90;;;;;;5015017;28;20502;-61
2022/12/15 07:31:05;;;;;;;10.23;4.43;;;20.10;99.90;;;;;;5014869;28;20042;-62
2022/12/15 07:33:32;;;;;;;10.02;4.22;;;20.00;99.90;;;;;;5014826;28;20033;-61
2022/12/15 07:35:59;;;;;;;7.78;4.85;;;20.00;99.90;;;;;;5014919;28;20041;-62
2022/12/15 07:38:26;;;;;;;8.65;4.10;;;20.10;99.90;;;;;;5014763;28;20037;-61
2022/12/15 07:40:52;;;;;;;7.17;3.60;;;20.10;99.90;;;;;;5014812;28;20480;-61
2022/12/15 07:43:18;;;;;;;8.45;4.50;;;20.10;99.90;;;;;;5014811;28;20275;-61
2022/12/15 07:45:43;;;;;;;8.30;4.30;;;20.10;99.90;;;;;;5014917;28;20026;-61
2022/12/15 07:48:09;;;;;;;9.50;4.60;;;20.10;99.90;;;;;;5014653;28;20041;-62
2022/12/15 07:50:40;;;;;;;8.80;4.50;;;20.10;99.90;;;;;;5013340;28;20022;-61
2022/12/15 07:53:06;;;;;;;9.95;4.85;;;20.00;99.90;;;;;;5014575;28;20049;-62
2022/12/15 07:55:32;;;;;;;9.10;5.80;;;20.10;99.90;;;;;;5014458;28;20026;-61
2022/12/15 07:57:58;;;;;;;8.45;5.07;;;20.10;99.90;;;;;;5014414;28;20032;-61
2022/12/15 08:00:23;;;;;;;12.20;5.40;;;20.10;99.90;;;;;;5014052;28;20053;-61
2022/12/15 08:02:49;;;;;;;8.95;4.95;;;20.10;99.90;;;;;;5014048;28;20029;-63
2022/12/15 08:05:15;;;;;;;10.32;5.35;;;20.10;99.90;;;;;;5014423;28;20022;-60
2022/12/15 08:07:40;;;;;;;8.63;4.95;;;20.10;99.90;;;;;;5014107;28;20101;-60
2022/12/15 08:10:06;;;;;;;11.00;5.40;;;20.10;99.90;;;;;;5014200;28;20495;-60
2022/12/15 08:12:32;;;;;;;10.07;5.82;;;20.10;99.90;;;;;;5014117;28;20138;-60
2022/12/15 08:14:58;;;;;;;10.75;5.82;;;20.10;99.90;;;;;;5014109;28;20053;-61
2022/12/15 08:17:24;;;;;;;10.85;6.18;;;20.10;99.90;;;;;;5014048;28;20431;-61
2022/12/15 08:19:49;;;;;;;10.82;5.65;;;20.10;99.90;;;;;;5014042;28;20022;-62
2022/12/15 08:22:15;;;;;;;9.02;4.78;;;20.10;99.90;;;;;;5014086;28;20097;-61
2022/12/15 08:24:41;;;;;;;12.43;5.68;;;20.10;99.90;;;;;;5014018;28;20034;-63
2022/12/15 08:27:07;;;;;;;13.10;5.28;;;20.10;99.90;;;;;;5014054;28;20037;-63
2022/12/15 08:29:33;;;;;;;8.20;4.63;;;20.10;99.90;;;;;;5013897;28;20069;-60
2022/12/15 08:31:59;;;;;;;9.27;5.78;;;20.10;99.90;;;;;;5013566;28;20099;-62
2022/12/15 08:34:25;;;;;;;10.30;6.18;;;20.10;99.90;;;;;;5013792;28;20029;-59
2022/12/15 08:36:51;;;;;;;9.05;5.20;;;20.00;99.90;;;;;;5012338;28;20026;-60
2022/12/15 08:39:17;;;;;;;11.63;5.78;;;20.00;99.90;;;;;;5013749;28;20379;-61
2022/12/15 08:41:43;;;;;;;10.45;5.68;;;20.00;99.90;;;;;;5013568;28;20033;-61
2022/12/15 08:44:09;;;;;;;9.63;6.03;;;20.00;99.90;;;;;;4995886;28;20483;-60
2022/12/15 08:46:35;;;;;;;10.88;5.40;;;20.00;99.90;;;;;;5013270;28;20026;-61
2022/12/15 08:49:02;;;;;;;13.23;5.80;;;20.00;99.90;;;;;;5013456;28;20479;-60
2022/12/15 08:51:31;;;;;;;11.37;5.93;;;20.00;99.90;;;;;;5013333;28;20037;-60
2022/12/15 08:53:58;;;;;;;12.13;5.93;;;20.00;99.90;;;;;;5013341;28;20157;-60
2022/12/15 08:56:25;;;;;;;8.48;5.78;;;20.00;99.90;;;;;;5013229;28;20057;-61
2022/12/15 08:58:57;;;;;;;9.20;4.95;;;20.00;99.90;;;;;;5013152;28;20033;-62
2022/12/15 09:01:25;;;;;;;8.27;5.10;;;20.00;99.90;;;;;;5012713;28;20057;-61
2022/12/15 09:03:53;;;;;;;12.13;6.18;;;20.00;99.90;;;;;;4996158;28;20022;-61
2022/12/15 09:06:22;;;;;;;11.15;5.72;;;20.00;99.90;;;;;;5013340;28;20076;-60
2022/12/15 09:08:48;;;;;;;11.27;5.70;;;20.00;99.90;;;;;;5013153;28;20113;-61
2022/12/15 09:11:13;;;;;;;10.65;5.15;;;20.00;99.90;;;;;;5012973;28;20471;-61
2022/12/15 09:13:40;;;;;;;8.60;5.28;;;20.00;99.90;;;;;;5012874;28;20030;-62
2022/12/15 09:16:13;;;;;;;11.25;5.65;;;20.00;99.90;;;;;;4995430;28;20022;-62
2022/12/15 09:18:45;;;;;;;8.85;4.90;;;20.00;99.90;;;;;;5012836;28;20050;-61
2022/12/15 09:21:12;;;;;;;7.97;4.57;;;20.00;99.90;;;;;;5012758;28;20025;-62
2022/12/15 09:23:39;;;;;;;8.30;4.68;;;20.00;99.90;;;;;;5012808;28;20380;-62
2022/12/15 09:26:08;;;;;;;8.35;5.28;;;20.00;99.90;;;;;;5012748;28;20033;-62
2022/12/15 09:28:34;;;;;;;10.40;5.75;;;20.00;99.90;;;;;;5012772;28;20040;-62
2022/12/15 09:31:27;;;;;;;8.10;5.05;;;20.00;99.90;;;;;;5012459;28;20606;-61
2022/12/15 09:33:55;;;;;;;7.18;4.53;;;20.00;99.90;;;;;;5009002;28;20356;-61
2022/12/15 09:36:21;;;;;;;;;;;20.00;99.90;;;;;;4995357;28;20029;-62
2022/12/15 09:38:47;;;;;;;8.52;5.15;;;20.00;99.90;;;;;;5012567;28;19959;-62
2022/12/15 09:41:12;;;;;;;10.20;4.72;;;19.90;99.90;;;;;;5012505;28;20084;-61
2022/12/15 09:43:51;;;;;;;8.48;4.63;;;19.90;99.90;;;;;;5012385;28;20026;-62
2022/12/15 09:46:43;;;;;;;8.07;4.70;;;19.90;99.90;;;;;;5012344;28;20040;-61
2022/12/15 09:49:35;;;;;;;8.70;4.70;;;19.90;99.90;;;;;;4962574;28;20121;-61
2022/12/15 09:52:17;;;;;;;6.35;4.05;;;19.90;99.90;;;;;;5012071;28;20034;-60
2022/12/15 09:54:43;;;;;;;9.02;4.22;;;19.90;99.90;;;;;;5012270;28;20029;-62
2022/12/15 09:57:34;;;;;;;9.18;4.88;;;19.90;99.90;;;;;;5012217;28;20026;-62
2022/12/15 10:00:14;;;;;;;8.35;5.35;;;19.90;99.90;;;;;;5012338;28;20434;-61
2022/12/15 10:03:14;;;;;;;9.40;4.95;;;19.90;99.90;;;;;;5012179;28;20022;-63
2022/12/15 10:05:54;;;;;;;8.60;5.22;;;19.90;99.90;;;;;;5012112;28;20495;-63
2022/12/15 10:08:22;;;;;;;7.72;4.57;;;19.90;99.90;;;;;;5012146;28;20054;-61
2022/12/15 10:11:02;;;;;;;7.15;4.53;;;20.00;99.90;;;;;;5011915;28;20033;-61
2022/12/15 10:13:56;;;;;;;7.07;4.22;;;20.00;99.90;;;;;;5014495;28;20034;-62
2022/12/15 10:16:30;;;;;;;8.75;4.30;;;20.00;99.90;;;;;;5016656;28;20025;-62
2022/12/15 10:19:04;;;;;;;8.95;4.38;;;20.10;99.90;;;;;;5016330;28;20387;-62
2022/12/15 10:21:31;;;;;;;7.00;4.00;;;20.10;99.90;;;;;;5015968;28;20029;-67
2022/12/15 10:24:17;;;;;;;6.00;4.20;;;20.10;99.90;;;;;;4998735;28;20455;-61
2022/12/15 10:26:51;;;;;;;6.88;3.63;;;20.10;99.90;;;;;;5014639;28;20431;-60
2022/12/15 10:29:45;;;;;;;6.03;3.58;;;20.20;99.90;;;;;;5014765;28;20598;-63
2022/12/15 10:32:33;;;;;;;6.95;3.95;;;20.20;99.90;;;;;;4971070;28;20056;-64
2022/12/15 10:35:00;;;;;;;7.85;4.53;;;20.20;99.90;;;;;;5015747;28;20030;-63
2022/12/15 10:37:25;;;;;;;7.45;4.03;;;20.20;99.90;;;;;;5015883;28;20018;-64
2022/12/15 10:39:51;;;;;;;9.00;3.53;;;20.20;99.90;;;;;;5015605;28;20026;-64
2022/12/15 10:42:25;;;;;;;9.93;3.92;;;20.20;99.90;;;;;;4997978;28;20034;-65
2022/12/15 10:44:56;;;;;;;6.53;4.05;;;20.20;99.90;;;;;;5015635;28;20125;-62
2022/12/15 10:47:26;;;;;;;10.55;5.78;;;20.10;99.90;;;;;;5015526;28;20037;-72
2022/12/15 10:49:53;;;;;;;9.60;5.93;;;20.10;99.90;;;;;;5015534;28;20523;-68
2022/12/15 10:52:31;;;;;;;14.00;7.10;;;20.10;99.90;;;;;;5014107;28;20064;-69
2022/12/15 10:54:56;;;;;;;11.68;7.15;;;20.10;99.90;;;;;;5015754;28;20038;-67
2022/12/15 10:57:27;;;;;;;14.45;7.63;;;20.10;99.90;;;;;;5014120;28;20030;-67
2022/12/15 10:59:54;;;;;;;15.18;7.70;;;20.00;99.90;;;;;;5015128;28;20063;-67
2022/12/15 11:02:20;;;;;;;;;;;20.00;99.90;;;;;;5015723;28;20033;-66
2022/12/15 11:04:58;;;;;;;14.65;8.48;;;20.00;99.90;;;;;;5015418;28;19909;-67
2022/12/15 11:07:43;;;;;;;17.80;8.68;;;20.00;99.90;;;;;;5015333;28;20025;-65
2022/12/15 11:10:14;;;;;;;12.88;7.45;;;20.00;99.90;;;;;;5015212;28;20113;-63
2022/12/15 11:12:52;;;;;;;17.15;8.43;;;20.00;99.90;;;;;;5015205;28;20127;-64
2022/12/15 11:15:23;;;;;;;15.00;8.00;;;20.00;99.90;;;;;;5015062;28;20022;-63
2022/12/15 11:18:22;;;;;;;16.63;8.55;;;20.00;99.90;;;;;;5015088;28;20105;-64
2022/12/15 11:21:05;;;;;;;15.82;8.30;;;19.90;99.90;;;;;;4969185;28;20045;-61
2022/12/15 11:23:50;;;;;;;12.55;7.68;;;19.90;99.90;;;;;;5014963;28;20017;-62
2022/12/15 11:26:24;;;;;;;13.57;8.30;;;20.00;99.90;;;;;;5014904;28;20026;-60
2022/12/15 11:28:57;;;;;;;15.20;8.00;;;19.90;99.90;;;;;;5014792;28;20375;-62
2022/12/15 11:31:36;;;;;;;13.95;8.75;;;20.00;99.90;;;;;;5013049;28;20046;-63
2022/12/15 11:34:02;;;;;;;15.27;10.18;;;19.90;99.90;;;;;;5013762;28;20030;-63
2022/12/15 11:36:37;;;;;;;17.48;11.32;;;20.00;99.90;;;;;;5012770;28;20415;-61
2022/12/15 11:39:21;;;;;;;20.40;11.93;;;20.00;99.90;;;;;;5013388;28;20041;-63
2022/12/15 11:41:52;;;;;;;19.92;11.82;;;20.00;99.90;;;;;;5014064;28;20030;-62
2022/12/15 11:44:24;;;;;;;19.70;11.88;;;20.00;99.90;;;;;;5014214;28;20021;-60
2022/12/15 11:47:27;;;;;;;20.58;12.38;;;20.00;99.90;;;;;;5014346;28;20510;-63
2022/12/15 11:50:42;;;;;;;20.63;9.70;;;20.10;99.90;;;;;;5014089;28;20087;-55
2022/12/15 11:53:35;;;;;;;10.63;4.65;;;20.20;99.90;;;;;;4957867;28;20049;-58
2022/12/15 11:56:01;;;;;;;16.42;4.85;;;20.10;99.90;;;;;;5004202;28;20080;-57
2022/12/15 11:58:39;;;;;;;11.07;3.90;;;20.10;99.90;;;;;;5013587;28;20121;-59
2022/12/15 12:01:39;;;;;;;15.38;4.93;;;20.10;99.90;;;;;;5013340;28;20104;-60
2022/12/15 12:04:07;;;;;;;20.48;8.77;;;20.00;99.90;;;;;;5011976;28;20032;-59
2022/12/15 12:06:51;;;;;;;17.65;9.30;;;20.00;99.90;;;;;;5013898;28;20026;-59
2022/12/15 12:09:26;;;;;;;26.30;11.65;;;20.10;99.90;;;;;;5013454;28;20025;-58
2022/12/15 12:12:19;;;;;;;21.30;13.07;;;20.10;99.90;;;;;;5013408;28;20113;-58
2022/12/15 12:15:06;;;;;;;26.77;14.93;;;20.10;99.90;;;;;;5011710;28;20421;-62
2022/12/15 12:17:47;;;;;;;29.45;16.17;;;20.20;99.90;;;;;;5014167;28;20417;-61
2022/12/15 12:20:25;;;;;;;27.75;16.20;;;20.20;99.90;;;;;;5013281;28;20026;-61
2022/12/15 12:23:17;;;;;;;28.52;15.93;;;20.20;99.90;;;;;;5013645;28;20030;-64
2022/12/15 12:26:06;;;;;;;28.63;16.73;;;20.20;99.90;;;;;;5013517;28;20080;-62
2022/12/15 12:29:05;;;;;;;31.67;18.52;;;20.20;99.90;;;;;;5014003;28;20080;-71
2022/12/15 12:31:45;;;;;;;34.05;19.90;;;20.30;99.90;;;;;;5013293;28;20483;-64
2022/12/15 12:34:24;;;;;;;31.42;18.75;;;20.30;99.90;;;;;;5012131;28;20022;-66
2022/12/15 12:36:52;;;;;;;30.10;18.88;;;20.30;99.90;;;;;;5012285;28;20026;-62
2022/12/15 12:39:24;;;;;;;35.80;20.60;;;20.30;99.90;;;;;;5013118;28;20057;-62
2022/12/15 12:42:13;;;;;;;32.45;20.00;;;20.30;99.90;;;;;;4995281;28;20026;-63
2022/12/15 12:44:39;;;;;;;33.08;20.10;;;20.40;99.90;;;;;;5010270;28;20486;-66
2022/12/15 12:47:25;;;;;;;34.35;20.95;;;20.40;99.90;;;;;;5013645;28;20053;-65
2022/12/15 12:49:59;;;;;;;36.13;21.83;;;20.40;99.90;;;;;;5013390;28;20025;-66
2022/12/15 12:52:29;;;;;;;35.22;19.45;;;20.40;99.90;;;;;;5013057;28;20041;-67
2022/12/15 12:55:03;;;;;;;32.78;20.75;;;20.40;99.90;;;;;;5013330;28;20101;-63
2022/12/15 12:57:37;;;;;;;34.08;19.88;;;20.50;99.90;;;;;;5013041;28;20148;-62
2022/12/15 13:00:18;;;;;;;36.92;20.23;;;20.50;99.90;;;;;;5012717;28;20080;-66
2022/12/15 13:03:18;;;;;;;33.95;21.30;;;20.60;99.90;;;;;;5012658;28;20116;-66
2022/12/15 13:05:46;;;;;;;38.30;20.42;;;20.60;99.90;;;;;;5007959;28;20117;-62
2022/12/15 13:08:12;;;;;;;34.72;21.67;;;20.60;99.90;;;;;;5013014;28;20083;-62
2022/12/15 13:10:44;;;;;;;35.58;20.95;;;20.60;99.90;;;;;;5015898;28;20021;-65
2022/12/15 13:13:12;;;;;;;30.08;18.85;;;20.70;99.90;;;;;;5025776;28;20025;-66
2022/12/15 13:15:43;;;;;;;30.08;18.38;;;20.70;99.90;;;;;;5021465;28;20061;-67
2022/12/15 13:18:19;;;;;;;30.45;18.80;;;20.70;99.90;;;;;;5016101;28;20025;-66
2022/12/15 13:20:47;;;;;;;29.45;16.95;;;20.70;99.90;;;;;;5021211;28;20128;-65
2022/12/15 13:23:18;;;;;;;;;;;20.70;99.90;;;;;;5013001;28;20487;-65
2022/12/15 13:25:46;;;;;;;25.80;17.30;;;20.70;99.90;;;;;;5012585;28;19905;-64
2022/12/15 13:28:16;;;;;;;27.15;17.58;;;20.70;99.90;;;;;;5026288;28;20018;-62
2022/12/15 13:31:17;;;;;;;31.40;17.33;;;20.70;99.90;;;;;;5012398;28;20037;-67
2022/12/15 13:33:49;;;;;;;26.20;16.98;;;20.60;99.90;;;;;;5012250;28;20018;-63
2022/12/15 13:36:39;;;;;;;33.20;16.98;;;20.60;99.90;;;;;;5012259;28;20052;-67
2022/12/15 13:39:13;;;;;;;27.80;17.38;;;20.70;99.90;;;;;;5012575;28;20424;-61
2022/12/15 13:41:45;;;;;;;34.63;17.40;;;20.60;99.90;;;;;;5012614;28;20032;-68
2022/12/15 13:44:23;;;;;;;26.55;17.15;;;20.60;99.90;;;;;;5019562;28;20017;-62
2022/12/15 13:46:51;;;;;;;32.38;16.00;;;20.70;99.90;;;;;;5016922;28;20471;-63
2022/12/15 13:49:32;;;;;;;24.70;15.73;;;20.60;99.90;;;;;;5011730;28;20022;-65
2022/12/15 13:52:09;;;;;;;26.13;16.08;;;20.60;99.90;;;;;;5011831;28;20431;-64
2022/12/15 13:54:39;;;;;;;23.25;15.20;;;20.70;99.90;;;;;;5011969;28;20022;-60
2022/12/15 13:57:16;;;;;;;29.23;15.10;;;20.70;99.90;;;;;;5009608;28;20033;-61
2022/12/15 13:59:49;;;;;;;27.30;14.82;;;20.70;99.90;;;;;;5009607;28;20064;-61
2022/12/15 14:02:28;;;;;;;26.00;15.13;;;20.70;99.90;;;;;;5010314;28;20030;-65
2022/12/15 14:05:20;;;;;;;26.48;14.27;;;20.70;99.90;;;;;;5011448;28;20495;-64
2022/12/15 14:07:57;;;;;;;23.17;13.68;;;20.70;99.90;;;;;;5010790;28;20014;-65
2022/12/15 14:10:38;;;;;;;27.67;13.88;;;20.70;99.90;;;;;;5011192;28;20383;-67
2022/12/15 14:13:29;;;;;;;26.85;13.30;;;20.70;99.90;;;;;;5012306;28;20029;-67
2022/12/15 14:16:18;;;;;;;21.80;13.77;;;20.70;99.90;;;;;;5008455;28;20030;-65
2022/12/15 14:19:01;;;;;;;32.53;13.00;;;20.60;99.90;;;;;;5014928;28;20061;-66
2022/12/15 14:21:28;;;;;;;24.88;13.35;;;20.60;99.90;;;;;;5009536;28;20120;-73
2022/12/15 14:23:56;;;;;;;23.30;13.05;;;20.60;99.90;;;;;;5009968;28;20097;-66
2022/12/15 14:26:30;;;;;;;25.73;14.48;;;20.60;99.90;;;;;;5013672;28;20430;-65
2022/12/15 14:29:04;;;;;;;23.08;11.80;;;20.60;99.90;;;;;;5011062;28;20060;-67
2022/12/15 14:31:30;;;;;;;19.98;12.07;;;20.60;99.90;;;;;;5010947;28;20480;-67
2022/12/15 14:34:07;;;;;;;26.92;13.63;;;20.60;99.90;;;;;;5009235;28;20162;-65
2022/12/15 14:36:34;;;;;;;20.13;12.85;;;20.50;99.90;;;;;;5011573;28;20026;-65
2022/12/15 14:39:06;;;;;;;23.37;12.57;;;20.60;99.90;;;;;;5009965;28;20134;-62
2022/12/15 14:41:38;;;;;;;22.45;12.20;;;20.50;99.90;;;;;;5011469;28;20523;-62
2022/12/15 14:44:10;;;;;;;23.75;12.45;;;20.50;99.90;;;;;;5007490;28;20084;-60
2022/12/15 14:46:36;;;;;;;20.17;11.80;;;20.50;99.90;;;;;;5010343;28;20530;-61
2022/12/15 14:49:05;;;;;;;23.17;12.38;;;20.50;99.90;;;;;;5010848;28;20038;-67
2022/12/15 14:51:49;;;;;;;23.20;12.05;;;20.50;99.90;;;;;;5010847;28;20488;-66
2022/12/15 14:54:52;;;;;;;20.67;11.43;;;20.50;99.90;;;;;;5010645;28;20029;-62
2022/12/15 14:57:42;;;;;;;17.48;11.13;;;20.50;99.90;;;;;;4999315;28;20430;-64
2022/12/15 15:00:28;;;;;;;20.52;13.25;;;20.40;99.90;;;;;;5012304;28;20376;-64
2022/12/15 15:03:20;;;;;;;25.58;13.82;;;20.40;99.90;;;;;;5019865;28;20472;-70
2022/12/15 15:05:51;;;;;;;23.05;15.07;;;20.40;99.90;;;;;;5015004;28;20022;-68
2022/12/15 15:08:23;;;;;;;25.00;14.77;;;20.50;99.90;;;;;;5014598;28;20018;-61
2022/12/15 15:10:49;;;;;;;27.85;15.15;;;20.50;99.90;;;;;;5015571;28;20428;-61
2022/12/15 15:13:24;;;;;;;27.83;15.50;;;20.60;99.90;;;;;;5012299;28;20044;-62
2022/12/15 15:15:56;;;;;;;27.02;16.70;;;20.60;99.90;;;;;;4996651;28;20018;-60
2022/12/15 15:18:25;;;;;;;24.83;15.23;;;20.70;99.90;;;;;;5015138;28;20044;-61
2022/12/15 15:20:59;;;;;;;25.77;14.68;;;20.70;99.90;;;;;;5011357;28;20022;-62
2022/12/15 15:23:25;;;;;;;25.40;15.15;;;20.70;99.90;;;;;;5022025;28;20022;-63
2022/12/15 15:25:53;;;;;;;27.13;15.77;;;20.70;99.90;;;;;;5011850;28;20028;-62
2022/12/15 15:28:18;;;;;;;22.70;14.27;;;20.70;99.90;;;;;;5011853;28;20033;-60
2022/12/15 15:30:54;;;;;;;26.05;14.38;;;20.70;99.90;;;;;;5015467;28;20030;-61
2022/12/15 15:33:21;;;;;;;22.63;14.38;;;20.70;99.90;;;;;;5011696;28;20033;-62